createdAt,value
2022-11-16T00:01:32.449Z,94.19
2022-11-16T00:04:02.959Z,94.09
2022-11-16T00:06:31.602Z,94.14
2022-11-16T00:09:21.964Z,94.19
2022-11-16T00:11:52.719Z,94.28
2022-11-16T00:14:22.597Z,94.53
2022-11-16T00:16:51.284Z,94.57
2022-11-16T00:19:19.973Z,94.58
2022-11-16T00:21:48.552Z,94.75
2022-11-16T00:24:18.739Z,94.68
2022-11-16T00:26:47.840Z,94.75
2022-11-16T00:29:19.226Z,94.74
2022-11-16T00:31:48.429Z,94.78
2022-11-16T00:34:17.656Z,94.94
2022-11-16T00:36:46.932Z,95.00
2022-11-16T00:39:16.794Z,94.99
2022-11-16T00:41:51.148Z,94.98
2022-11-16T00:44:19.733Z,95.08
2022-11-16T00:46:48.596Z,95.23
2022-11-16T00:49:19.707Z,95.30
2022-11-16T00:51:47.944Z,95.38
2022-11-16T00:54:16.868Z,95.39
2022-11-16T00:56:45.854Z,95.31
2022-11-16T00:59:16.218Z,95.40
2022-11-16T01:01:47.312Z,95.60
2022-11-16T01:04:15.806Z,95.57
2022-11-16T01:06:44.634Z,95.58
2022-11-16T01:09:13.337Z,95.72
2022-11-16T01:12:00.100Z,95.74
2022-11-16T01:14:30.912Z,95.77
2022-11-16T01:17:01.689Z,95.69
2022-11-16T01:19:30.608Z,95.78
2022-11-16T01:21:59.515Z,95.92
2022-11-16T01:24:28.517Z,95.81
2022-11-16T01:26:58.254Z,95.91
2022-11-16T01:29:31.147Z,96.03
2022-11-16T01:32:01.792Z,96.03
2022-11-16T01:34:30.219Z,96.08
2022-11-16T01:37:05.833Z,96.18
2022-11-16T01:39:37.506Z,96.08
2022-11-16T01:42:06.670Z,95.97
2022-11-16T01:44:35.308Z,96.04
2022-11-16T01:47:15.929Z,96.12
2022-11-16T01:49:49.102Z,96.10
2022-11-16T01:52:33.446Z,96.07
2022-11-16T01:55:02.754Z,96.07
2022-11-16T01:57:42.939Z,96.24
2022-11-16T02:00:12.772Z,96.05
2022-11-16T02:03:05.193Z,96.01
2022-11-16T02:06:11.397Z,96.01
2022-11-16T02:09:08.146Z,96.06
2022-11-16T02:12:04.208Z,96.09
2022-11-16T02:14:59.901Z,96.04
2022-11-16T02:17:47.437Z,95.91
2022-11-16T02:20:37.438Z,96.05
2022-11-16T02:23:17.092Z,96.28
2022-11-16T02:26:01.383Z,96.26
2022-11-16T02:28:54.726Z,96.47
2022-11-16T02:31:30.979Z,96.48
2022-11-16T02:34:00.936Z,96.45
2022-11-16T02:36:29.427Z,96.60
2022-11-16T02:39:05.271Z,96.53
2022-11-16T02:41:39.951Z,96.54
2022-11-16T02:44:20.269Z,96.59
2022-11-16T02:46:57.256Z,96.69
2022-11-16T02:49:28.329Z,96.68
2022-11-16T02:51:58.249Z,96.51
2022-11-16T02:54:28.192Z,96.55
2022-11-16T02:57:03.592Z,96.52
2022-11-16T02:59:43.107Z,96.74
2022-11-16T03:03:07.331Z,96.70
2022-11-16T03:05:46.424Z,96.61
2022-11-16T03:08:28.666Z,96.66
2022-11-16T03:11:22.002Z,96.57
2022-11-16T03:13:52.658Z,96.87
2022-11-16T03:16:27.829Z,96.66
2022-11-16T03:19:00.869Z,96.86
2022-11-16T03:21:37.676Z,97.00
2022-11-16T03:24:07.714Z,96.78
2022-11-16T03:26:45.493Z,96.79
2022-11-16T03:29:26.136Z,96.70
2022-11-16T03:32:18.207Z,96.66
2022-11-16T03:34:54.213Z,96.73
2022-11-16T03:37:24.913Z,96.68
2022-11-16T03:39:56.013Z,96.72
2022-11-16T03:42:27.068Z,96.53
2022-11-16T03:44:56.509Z,96.50
2022-11-16T03:47:26.411Z,96.39
2022-11-16T03:49:54.658Z,96.46
2022-11-16T03:52:25.277Z,96.41
2022-11-16T03:54:53.784Z,96.23
2022-11-16T03:57:22.116Z,96.43
2022-11-16T03:59:55.942Z,96.55
2022-11-16T04:02:24.153Z,96.60
2022-11-16T04:05:11.941Z,96.73
2022-11-16T04:07:58.874Z,96.47
2022-11-16T04:10:45.712Z,96.58
2022-11-16T04:13:34.466Z,96.48
2022-11-16T04:16:21.068Z,96.76
2022-11-16T04:19:07.908Z,96.57
2022-11-16T04:21:59.979Z,96.47
2022-11-16T04:24:35.770Z,96.38
2022-11-16T04:27:26.449Z,96.31
2022-11-16T04:29:57.925Z,96.32
2022-11-16T04:32:45.882Z,96.29
2022-11-16T04:35:33.113Z,96.31
2022-11-16T04:38:01.607Z,96.45
2022-11-16T04:40:34.042Z,96.23
2022-11-16T04:43:04.556Z,96.35
2022-11-16T04:45:54.335Z,96.54
2022-11-16T04:48:26.404Z,96.58
2022-11-16T04:50:55.401Z,96.37
2022-11-16T04:53:27.360Z,96.31
2022-11-16T04:56:25.018Z,96.20
2022-11-16T04:58:54.118Z,96.26
2022-11-16T05:01:42.580Z,96.47
2022-11-16T05:04:11.706Z,96.54
2022-11-16T05:06:39.845Z,96.45
2022-11-16T05:09:08.357Z,96.42
2022-11-16T05:11:37.107Z,96.72
2022-11-16T05:14:06.305Z,96.59
2022-11-16T05:16:38.144Z,96.42
2022-11-16T05:19:25.063Z,96.35
2022-11-16T05:21:53.473Z,96.40
2022-11-16T05:24:33.718Z,96.24
2022-11-16T05:27:05.815Z,96.08
2022-11-16T05:29:34.985Z,96.02
2022-11-16T05:32:05.249Z,96.20
2022-11-16T05:34:34.229Z,95.94
2022-11-16T05:37:03.233Z,95.87
2022-11-16T05:39:31.827Z,95.71
2022-11-16T05:42:00.192Z,95.62
2022-11-16T05:44:28.736Z,95.92
2022-11-16T05:46:57.163Z,95.73
2022-11-16T05:49:25.769Z,95.71
2022-11-16T05:51:54.499Z,95.61
2022-11-16T05:54:27.267Z,95.58
2022-11-16T05:56:57.538Z,95.75
2022-11-16T05:59:25.840Z,95.54
2022-11-16T06:01:56.006Z,95.42
2022-11-16T06:04:24.465Z,95.55
2022-11-16T06:06:54.305Z,95.59
2022-11-16T06:09:22.866Z,95.71
2022-11-16T06:11:51.132Z,95.81
2022-11-16T06:14:19.263Z,95.76
2022-11-16T06:16:47.465Z,95.70
2022-11-16T06:19:15.672Z,95.62
2022-11-16T06:21:43.757Z,95.69
2022-11-16T06:24:19.190Z,95.60
2022-11-16T06:26:47.469Z,95.78
2022-11-16T06:29:15.808Z,95.54
2022-11-16T06:31:44.489Z,95.61
2022-11-16T06:34:13.155Z,95.67
2022-11-16T06:36:41.341Z,95.63
2022-11-16T06:39:11.384Z,95.59
2022-11-16T06:41:41.581Z,95.72
2022-11-16T06:44:11.204Z,95.70
2022-11-16T06:46:42.633Z,95.56
2022-11-16T06:49:11.089Z,95.52
2022-11-16T06:51:39.462Z,95.67
2022-11-16T06:54:09.048Z,95.56
2022-11-16T06:56:37.234Z,95.37
2022-11-16T06:59:05.821Z,95.57
2022-11-16T07:01:34.144Z,95.55
2022-11-16T07:04:06.222Z,95.56
2022-11-16T07:06:34.853Z,95.54
2022-11-16T07:09:06.165Z,95.45
2022-11-16T07:11:34.847Z,95.43
2022-11-16T07:14:03.712Z,95.35
2022-11-16T07:16:32.201Z,95.44
2022-11-16T07:19:02.634Z,95.45
2022-11-16T07:21:32.083Z,95.52
2022-11-16T07:24:01.564Z,95.69
2022-11-16T07:26:31.262Z,95.41
2022-11-16T07:29:03.968Z,95.31
2022-11-16T07:31:32.324Z,95.36
2022-11-16T07:34:19.835Z,95.29
2022-11-16T07:37:01.817Z,95.20
2022-11-16T07:39:30.717Z,95.43
2022-11-16T07:41:59.178Z,95.39
2022-11-16T07:44:46.124Z,95.35
2022-11-16T07:47:14.984Z,95.66
2022-11-16T07:49:43.417Z,95.65
2022-11-16T07:52:15.807Z,95.24
2022-11-16T07:55:05.704Z,95.39
2022-11-16T07:57:34.722Z,95.43
2022-11-16T08:00:06.513Z,95.45
2022-11-16T08:02:46.839Z,95.14
2022-11-16T08:05:19.050Z,95.09
2022-11-16T08:07:47.302Z,95.08
2022-11-16T08:10:15.849Z,94.78
2022-11-16T08:12:43.948Z,94.77
2022-11-16T08:15:14.195Z,94.81
2022-11-16T08:17:42.784Z,94.92
2022-11-16T08:20:12.725Z,94.85
2022-11-16T08:22:41.328Z,94.98
2022-11-16T08:25:09.779Z,94.99
2022-11-16T08:27:39.258Z,94.76
2022-11-16T08:30:10.003Z,94.58
2022-11-16T08:32:39.150Z,94.40
2022-11-16T08:35:07.841Z,94.25
2022-11-16T08:37:36.197Z,94.03
2022-11-16T08:40:05.185Z,94.15
2022-11-16T08:42:42.304Z,93.99
2022-11-16T08:45:12.329Z,94.14
2022-11-16T08:47:41.861Z,94.20
2022-11-16T08:50:10.115Z,93.99
2022-11-16T08:52:38.861Z,94.05
2022-11-16T08:55:07.399Z,94.13
2022-11-16T08:57:35.633Z,94.32
2022-11-16T09:00:08.133Z,94.26
2022-11-16T09:02:36.654Z,93.99
2022-11-16T09:05:05.582Z,94.09
2022-11-16T09:07:34.239Z,93.96
2022-11-16T09:10:02.428Z,93.93
2022-11-16T09:12:30.624Z,94.09
2022-11-16T09:14:59.189Z,94.04
2022-11-16T09:17:27.231Z,94.05
2022-11-16T09:19:55.359Z,94.16
2022-11-16T09:22:24.042Z,94.03
2022-11-16T09:24:52.067Z,94.18
2022-11-16T09:27:20.212Z,94.13
2022-11-16T09:29:49.731Z,93.91
2022-11-16T09:32:18.000Z,93.75
2022-11-16T09:34:46.307Z,93.77
2022-11-16T09:37:15.445Z,93.94
2022-11-16T09:39:43.479Z,94.01
2022-11-16T09:42:34.131Z,94.15
2022-11-16T09:45:12.261Z,93.97
2022-11-16T09:47:45.534Z,93.64
2022-11-16T09:50:29.763Z,93.36
2022-11-16T09:53:06.292Z,93.19
2022-11-16T09:55:40.961Z,93.05
2022-11-16T09:58:16.253Z,93.42
2022-11-16T10:00:51.203Z,93.57
2022-11-16T10:03:19.492Z,93.50
2022-11-16T10:06:00.828Z,93.48
2022-11-16T10:08:42.572Z,93.42
2022-11-16T10:11:29.176Z,93.42
2022-11-16T10:14:18.839Z,93.62
2022-11-16T10:17:11.678Z,93.44
2022-11-16T10:19:47.031Z,93.72
2022-11-16T10:23:05.002Z,93.95
2022-11-16T10:25:44.523Z,94.07
2022-11-16T10:28:15.548Z,93.97
2022-11-16T10:30:54.761Z,94.04
2022-11-16T10:33:26.997Z,94.22
2022-11-16T10:35:56.063Z,94.07
2022-11-16T10:38:29.034Z,93.85
2022-11-16T10:41:18.782Z,93.75
2022-11-16T10:43:48.441Z,93.70
2022-11-16T10:46:33.949Z,93.88
2022-11-16T10:49:14.507Z,94.05
2022-11-16T10:51:43.653Z,93.92
2022-11-16T10:54:16.395Z,93.67
2022-11-16T10:56:47.182Z,93.65
2022-11-16T10:59:18.881Z,93.68
2022-11-16T11:01:57.947Z,93.76
2022-11-16T11:04:28.295Z,93.95
2022-11-16T11:06:59.271Z,94.03
2022-11-16T11:09:32.984Z,94.09
2022-11-16T11:12:39.324Z,94.36
2022-11-16T11:15:27.039Z,94.20
2022-11-16T11:18:19.897Z,94.28
2022-11-16T11:20:54.208Z,94.30
2022-11-16T11:23:25.318Z,94.10
2022-11-16T11:26:00.514Z,94.31
2022-11-16T11:28:32.056Z,94.34
2022-11-16T11:31:12.117Z,94.19
2022-11-16T11:33:49.639Z,94.31
2022-11-16T11:36:21.814Z,94.30
2022-11-16T11:39:03.500Z,94.21
2022-11-16T11:41:37.864Z,94.46
2022-11-16T11:44:16.383Z,94.41
2022-11-16T11:47:42.419Z,94.49
2022-11-16T11:49:52.503Z,94.51
2022-11-16T11:53:05.556Z,94.61
2022-11-16T11:55:34.675Z,94.66
2022-11-16T11:58:06.043Z,94.61
2022-11-16T12:00:56.305Z,94.45
2022-11-16T12:03:43.361Z,94.32
2022-11-16T12:06:17.546Z,94.35
2022-11-16T12:09:08.993Z,94.00
2022-11-16T12:11:57.409Z,94.21
2022-11-16T12:14:49.434Z,94.43
2022-11-16T12:17:48.329Z,94.55
2022-11-16T12:20:29.010Z,94.52
2022-11-16T12:23:12.240Z,94.35
2022-11-16T12:26:06.921Z,94.33
2022-11-16T12:29:03.369Z,94.34
2022-11-16T12:31:46.499Z,94.34
2022-11-16T12:34:14.570Z,94.44
2022-11-16T12:37:00.026Z,94.17
2022-11-16T12:39:30.751Z,94.25
2022-11-16T12:42:30.617Z,94.36
2022-11-16T12:45:32.224Z,94.14
2022-11-16T12:48:19.767Z,94.09
2022-11-16T12:51:03.896Z,93.98
2022-11-16T12:53:32.857Z,94.02
2022-11-16T12:56:26.955Z,93.86
2022-11-16T12:59:22.422Z,94.01
2022-11-16T13:02:13.242Z,93.93
2022-11-16T13:04:47.477Z,93.93
2022-11-16T13:07:19.941Z,94.13
2022-11-16T13:10:14.437Z,93.99
2022-11-16T13:12:46.111Z,94.05
2022-11-16T13:15:29.733Z,94.13
2022-11-16T13:18:01.935Z,94.16
2022-11-16T13:20:43.946Z,94.17
2022-11-16T13:23:44.181Z,94.29
2022-11-16T13:26:23.126Z,94.44
2022-11-16T13:29:27.609Z,94.32
2022-11-16T13:32:12.552Z,94.36
2022-11-16T13:34:41.707Z,94.21
2022-11-16T13:37:39.500Z,94.16
2022-11-16T13:40:08.739Z,94.04
2022-11-16T13:42:45.536Z,93.99
2022-11-16T13:45:20.798Z,94.10
2022-11-16T13:47:55.261Z,94.07
2022-11-16T13:50:34.527Z,94.14
2022-11-16T13:56:10.248Z,94.09
2022-11-16T13:58:46.303Z,93.85
2022-11-16T14:01:15.829Z,94.01
2022-11-16T14:03:51.735Z,93.91
2022-11-16T14:06:19.981Z,93.99
2022-11-16T14:08:51.191Z,93.95
2022-11-16T14:11:39.542Z,94.00
2022-11-16T14:14:34.278Z,93.96
2022-11-16T14:17:02.751Z,93.85
2022-11-16T14:19:49.384Z,93.92
2022-11-16T14:22:39.861Z,94.06
2022-11-16T14:25:42.239Z,93.91
2022-11-16T14:28:20.372Z,94.01
2022-11-16T14:31:10.121Z,93.92
2022-11-16T14:33:39.164Z,93.88
2022-11-16T14:36:09.946Z,93.95
2022-11-16T14:38:42.943Z,93.83
2022-11-16T14:41:22.329Z,93.67
2022-11-16T14:43:55.368Z,93.59
2022-11-16T14:46:32.078Z,93.60
2022-11-16T14:49:01.705Z,93.49
2022-11-16T14:51:34.827Z,93.53
2022-11-16T14:54:13.110Z,93.57
2022-11-16T14:56:59.984Z,93.53
2022-11-16T14:59:30.852Z,93.67
2022-11-16T15:02:19.102Z,93.64
2022-11-16T15:04:51.274Z,93.66
2022-11-16T15:07:22.540Z,93.45
2022-11-16T15:09:54.844Z,93.54
2022-11-16T15:12:41.938Z,93.53
2022-11-16T15:15:12.846Z,93.72
2022-11-16T15:17:45.041Z,93.66
2022-11-16T15:20:20.145Z,93.65
2022-11-16T15:22:52.139Z,93.74
2022-11-16T15:26:03.361Z,93.39
2022-11-16T15:28:33.291Z,93.53
2022-11-16T15:31:07.237Z,93.38
2022-11-16T15:33:36.909Z,93.31
2022-11-16T15:36:38.269Z,93.30
2022-11-16T15:39:16.698Z,93.13
2022-11-16T15:41:46.268Z,92.88
2022-11-16T15:44:17.998Z,93.07
2022-11-16T15:46:50.650Z,92.99
2022-11-16T15:49:36.267Z,92.78
2022-11-16T15:52:05.946Z,92.61
2022-11-16T15:54:55.622Z,92.67
2022-11-16T15:57:24.679Z,92.38
2022-11-16T15:59:55.743Z,92.40
2022-11-16T16:02:27.602Z,92.56
2022-11-16T16:04:56.464Z,92.68
2022-11-16T16:07:42.544Z,92.71
2022-11-16T16:10:20.231Z,92.64
2022-11-16T16:12:53.087Z,92.56
2022-11-16T16:15:24.033Z,92.49
2022-11-16T16:17:54.188Z,92.51
2022-11-16T16:20:25.512Z,92.60
2022-11-16T16:22:54.432Z,92.52
2022-11-16T16:25:28.707Z,92.48
2022-11-16T16:27:58.286Z,92.43
2022-11-16T16:30:28.167Z,92.27
2022-11-16T16:32:56.571Z,92.41
2022-11-16T16:35:26.609Z,92.43
2022-11-16T16:38:00.957Z,92.43
2022-11-16T16:40:29.952Z,92.48
2022-11-16T16:42:58.495Z,92.50
2022-11-16T16:45:41.504Z,92.38
2022-11-16T16:48:12.652Z,92.32
2022-11-16T16:50:40.827Z,92.60
2022-11-16T16:53:12.923Z,92.73
2022-11-16T16:55:43.940Z,92.76
2022-11-16T16:58:13.473Z,92.65
2022-11-16T17:00:42.206Z,92.72
2022-11-16T17:03:10.725Z,92.74
2022-11-16T17:05:38.818Z,92.80
2022-11-16T17:08:07.005Z,92.82
2022-11-16T17:10:38.426Z,93.05
2022-11-16T17:13:10.079Z,93.18
2022-11-16T17:15:38.385Z,93.04
2022-11-16T17:18:06.428Z,92.84
2022-11-16T17:20:34.593Z,92.90
2022-11-16T17:23:04.219Z,92.78
2022-11-16T17:25:33.133Z,92.83
2022-11-16T17:28:01.373Z,92.88
2022-11-16T17:30:29.617Z,92.93
2022-11-16T17:32:57.674Z,92.68
2022-11-16T17:35:26.034Z,92.51
2022-11-16T17:37:54.496Z,92.56
2022-11-16T17:40:22.658Z,92.53
2022-11-16T17:42:50.849Z,92.46
2022-11-16T17:45:19.311Z,92.35
2022-11-16T17:47:47.478Z,92.36
2022-11-16T17:50:17.327Z,92.46
2022-11-16T17:52:45.383Z,92.43
2022-11-16T17:55:13.569Z,92.40
2022-11-16T17:57:41.760Z,92.26
2022-11-16T18:00:11.078Z,92.32
2022-11-16T18:02:39.187Z,92.37
2022-11-16T18:05:07.646Z,92.58
2022-11-16T18:07:37.626Z,92.49
2022-11-16T18:10:06.314Z,92.52
2022-11-16T18:12:34.437Z,92.53
2022-11-16T18:17:51.272Z,92.43
2022-11-16T18:20:19.577Z,92.49
2022-11-16T18:22:47.606Z,92.54
2022-11-16T18:25:16.217Z,92.59
2022-11-16T18:27:44.402Z,92.84
2022-11-16T18:30:13.445Z,92.67
2022-11-16T18:32:41.526Z,92.35
2022-11-16T18:35:10.070Z,92.38
2022-11-16T18:37:38.199Z,92.47
2022-11-16T18:40:07.292Z,92.46
2022-11-16T18:42:35.853Z,92.38
2022-11-16T18:45:04.384Z,92.38
2022-11-16T18:47:32.659Z,92.23
2022-11-16T18:50:01.973Z,92.17
2022-11-16T18:52:30.138Z,92.13
2022-11-16T18:54:58.578Z,92.00
2022-11-16T18:57:26.848Z,91.99
2022-11-16T18:59:54.979Z,91.92
2022-11-16T19:02:23.801Z,91.99
2022-11-16T19:04:52.350Z,91.94
2022-11-16T19:07:21.305Z,91.92
2022-11-16T19:09:51.687Z,92.01
2022-11-16T19:12:20.056Z,92.00
2022-11-16T19:14:48.179Z,92.04
2022-11-16T19:17:16.498Z,91.96
2022-11-16T19:19:44.795Z,92.01
2022-11-16T19:22:12.817Z,91.80
2022-11-16T19:24:41.109Z,91.79
2022-11-16T19:27:09.379Z,91.96
2022-11-16T19:29:37.561Z,92.13
2022-11-16T19:32:05.750Z,92.12
2022-11-16T19:34:34.497Z,92.23
2022-11-16T19:37:02.766Z,92.39
2022-11-16T19:39:31.168Z,92.44
2022-11-16T19:41:59.818Z,92.51
2022-11-16T19:44:27.897Z,92.38
2022-11-16T19:46:56.977Z,92.36
2022-11-16T19:49:25.952Z,92.20
2022-11-16T19:51:54.279Z,92.17
2022-11-16T19:54:22.934Z,92.25
2022-11-16T19:56:55.079Z,92.26
2022-11-16T19:59:23.746Z,92.49
2022-11-16T20:01:52.924Z,92.59
2022-11-16T20:04:21.552Z,92.49
2022-11-16T20:06:49.972Z,92.47
2022-11-16T20:09:21.004Z,92.40
2022-11-16T20:11:50.475Z,92.38
2022-11-16T20:14:18.950Z,92.35
2022-11-16T20:16:49.811Z,92.33
2022-11-16T20:19:20.244Z,92.38
2022-11-16T20:21:49.114Z,92.36
2022-11-16T20:24:18.142Z,92.59
2022-11-16T20:26:49.191Z,92.52
2022-11-16T20:29:19.879Z,92.18
2022-11-16T20:31:52.902Z,92.42
2022-11-16T20:34:25.059Z,92.34
2022-11-16T20:36:54.309Z,92.17
2022-11-16T20:39:22.952Z,92.12
2022-11-16T20:41:51.559Z,92.16
2022-11-16T20:44:22.590Z,92.24
2022-11-16T20:46:52.798Z,92.32
2022-11-16T20:49:21.605Z,92.31
2022-11-16T20:51:51.187Z,92.22
2022-11-16T20:54:19.224Z,92.19
2022-11-16T20:56:49.676Z,92.21
2022-11-16T20:59:18.560Z,92.05
2022-11-16T21:01:49.126Z,92.08
2022-11-16T21:04:17.925Z,92.12
2022-11-16T21:06:46.343Z,92.17
2022-11-16T21:09:22.717Z,92.05
2022-11-16T21:12:10.250Z,92.01
2022-11-16T21:14:38.432Z,92.07
2022-11-16T21:17:06.872Z,92.16
2022-11-16T21:19:35.427Z,92.11
2022-11-16T21:22:03.528Z,92.07
2022-11-16T21:24:32.356Z,91.96
2022-11-16T21:27:00.671Z,92.07
2022-11-16T21:29:30.750Z,92.21
2022-11-16T21:31:58.836Z,92.08
2022-11-16T21:34:28.678Z,92.10
2022-11-16T21:36:57.011Z,92.09
2022-11-16T21:39:25.556Z,92.09
2022-11-16T21:41:53.909Z,92.06
2022-11-16T21:44:21.976Z,92.21
2022-11-16T21:46:50.632Z,91.92
2022-11-16T21:49:18.879Z,91.89
2022-11-16T21:51:47.020Z,91.82
2022-11-16T21:54:15.384Z,91.92
2022-11-16T21:56:43.415Z,91.96
2022-11-16T21:59:11.499Z,92.00
2022-11-16T22:01:59.373Z,92.07
2022-11-16T22:04:56.595Z,91.91
2022-11-16T22:07:34.098Z,91.85
2022-11-16T22:10:10.587Z,91.82
2022-11-16T22:15:46.475Z,92.08
2022-11-16T22:18:14.951Z,92.09
2022-11-16T22:20:47.259Z,92.08
2022-11-16T22:23:19.992Z,92.17
2022-11-16T22:25:51.292Z,92.29
2022-11-16T22:28:21.247Z,92.27
2022-11-16T22:30:51.962Z,92.21
2022-11-16T22:33:21.054Z,92.29
2022-11-16T22:35:49.489Z,92.38
2022-11-16T22:38:17.753Z,92.61
2022-11-16T22:40:53.694Z,92.41
2022-11-16T22:43:24.938Z,92.53
2022-11-16T22:46:00.803Z,92.78
2022-11-16T22:48:37.170Z,92.61
2022-11-16T22:51:07.916Z,92.86
2022-11-16T22:53:36.621Z,92.83
2022-11-16T22:56:07.173Z,92.57
2022-11-16T22:58:39.728Z,92.61
2022-11-16T23:01:09.588Z,92.47
2022-11-16T23:03:38.978Z,92.63
2022-11-16T23:06:08.002Z,92.67
2022-11-16T23:08:36.959Z,92.73
2022-11-16T23:11:32.325Z,92.56
2022-11-16T23:14:19.525Z,92.62
2022-11-16T23:16:48.488Z,92.59
2022-11-16T23:19:37.943Z,92.48
2022-11-16T23:22:26.902Z,92.21
2022-11-16T23:25:14.355Z,91.92
2022-11-16T23:27:55.973Z,92.00
2022-11-16T23:30:26.523Z,92.04
2022-11-16T23:32:55.440Z,92.06
2022-11-16T23:35:24.029Z,91.90
2022-11-16T23:38:03.067Z,91.70
2022-11-16T23:40:40.465Z,91.69
2022-11-16T23:43:29.109Z,91.79
2022-11-16T23:45:57.611Z,91.55
2022-11-16T23:48:25.860Z,91.45
2022-11-16T23:50:54.127Z,91.19
2022-11-16T23:53:22.499Z,91.08
2022-11-16T23:55:51.381Z,91.06
2022-11-16T23:58:19.673Z,91.09
